Time;durP1;ratioP1;P1;durP2;ratioP2;P2;SDS_P1;SDS_P2;PMS_P1;PMS_P2;Temp;Humidity;BMP_temperature;BMP_pressure;BME280_temperature;BME280_humidity;BME280_pressure;Samples;Min_cycle;Max_cycle;Signal;HPM_P1;HPM_P2
2022/01/01 00:01:17;;;;;;;47.42;28.70;;;;;;;;;;4943030;29;20098;-86
2022/01/01 00:03:43;;;;;;;48.03;27.48;;;;;;;;;;4943083;29;20032;-85
2022/01/01 00:06:08;;;;;;;47.33;29.33;;;;;;;;;;4923558;29;20091;-88
2022/01/01 00:08:33;;;;;;;52.03;28.10;;;;;;;;;;4923677;29;20459;-85
2022/01/01 00:10:59;;;;;;;46.83;26.55;;;;;;;;;;4907135;29;20042;-86
2022/01/01 00:13:24;;;;;;;43.78;28.13;;;;;;;;;;4914739;29;20498;-86
2022/01/01 00:15:49;;;;;;;46.10;26.63;;;;;;;;;;4920617;29;20021;-84
2022/01/01 00:18:16;;;;;;;44.45;26.55;;;;;;;;;;4936513;29;20127;-86
2022/01/01 00:20:42;;;;;;;46.00;24.92;;;;;;;;;;4944691;29;20030;-82
2022/01/01 00:23:07;;;;;;;37.40;22.45;;;;;;;;;;4942730;29;20087;-85
2022/01/01 00:25:33;;;;;;;38.30;22.00;;;;;;;;;;4933643;29;20043;-84
2022/01/01 00:27:58;;;;;;;40.28;21.77;;;;;;;;;;4933204;29;20110;-84
2022/01/01 00:30:26;;;;;;;36.05;21.23;;;;;;;;;;4923137;29;20035;-87
2022/01/01 00:32:53;;;;;;;37.30;21.20;;;;;;;;;;4932623;29;20036;-87
2022/01/01 00:36:15;;;;;;;40.33;20.63;;;;;;;;;;4910391;29;20078;-90
2022/01/01 00:42:24;;;;;;;25.88;15.45;;;;;;;;;;4922449;29;20451;-89
2022/01/01 00:55:19;;;;;;;20.45;11.73;;;;;;;;;;4898703;29;20120;-89
2022/01/01 00:58:19;;;;;;;20.13;11.73;;;;;;;;;;4908373;29;20032;-88
2022/01/01 01:04:21;;;;;;;16.90;9.07;;;;;;;;;;4909184;29;20043;-87
2022/01/01 01:06:59;;;;;;;14.90;8.65;;;;;;;;;;4895956;29;20043;-89
2022/01/01 01:27:00;;;;;;;17.70;9.45;;;;;;;;;;4892467;29;20102;-87
2022/01/01 01:30:07;;;;;;;15.05;9.57;;;;;;;;;;4892025;29;20044;-87
2022/01/01 01:43:17;;;;;;;16.83;8.63;;;;;;;;;;4876820;29;20311;-86
2022/01/01 01:45:44;;;;;;;17.65;9.13;;;;;;;;;;4873984;29;20041;-85
2022/01/01 01:48:21;;;;;;;56.90;30.67;;;;;;;;;;4910087;29;20043;-88
2022/01/01 01:50:57;;;;;;;19.30;9.90;;;;;;;;;;4934218;29;20529;-86
2022/01/01 01:53:26;;;;;;;19.40;8.82;;;;;;;;;;4917012;29;20493;-87
2022/01/01 01:56:01;;;;;;;16.83;10.32;;;;;;;;;;4939392;29;20043;-86
2022/01/01 01:58:31;;;;;;;20.02;10.15;;;;;;;;;;4911452;29;20080;-87
2022/01/01 02:03:48;;;;;;;16.25;10.05;;;;;;;;;;4924415;29;20024;-86
2022/01/01 02:06:18;;;;;;;14.82;9.57;;;;;;;;;;4905823;29;20108;-86
2022/01/01 02:08:45;;;;;;;15.85;9.48;;;;;;;;;;4927861;29;20016;-88
2022/01/01 02:11:13;;;;;;;16.15;9.45;;;;;;;;;;4916300;29;20488;-86
2022/01/01 02:19:26;;;;;;;15.10;8.95;;;;;;;;;;4929708;29;20056;-84
2022/01/01 02:21:54;;;;;;;18.00;9.55;;;;;;;;;;4928745;29;20034;-84
2022/01/01 02:24:20;;;;;;;16.83;9.45;;;;;;;;;;4927442;29;20028;-84
2022/01/01 02:26:46;;;;;;;17.13;9.65;;;;;;;;;;4931545;29;20054;-83
2022/01/01 02:29:11;;;;;;;16.27;9.25;;;;;;;;;;4917594;29;20580;-85
2022/01/01 02:31:37;;;;;;;16.40;10.10;;;;;;;;;;4934536;29;20490;-87
2022/01/01 02:34:04;;;;;;;15.80;9.73;;;;;;;;;;4906209;29;20034;-90
2022/01/01 02:36:41;;;;;;;15.98;9.23;;;;;;;;;;4906952;29;20030;-86
2022/01/01 02:39:13;;;;;;;14.45;8.43;;;;;;;;;;4923722;29;20031;-86
2022/01/01 02:41:40;;;;;;;17.30;9.55;;;;;;;;;;4920724;29;20084;-87
2022/01/01 02:44:06;;;;;;;18.25;8.30;;;;;;;;;;4912712;29;20035;-87
2022/01/01 02:46:32;;;;;;;15.23;8.45;;;;;;;;;;4921491;29;20079;-89
2022/01/01 02:49:03;;;;;;;15.40;9.02;;;;;;;;;;4922097;29;20028;-89
2022/01/01 02:51:29;;;;;;;15.73;9.80;;;;;;;;;;4928698;29;20074;-89
2022/01/01 02:53:55;;;;;;;15.65;9.52;;;;;;;;;;4933347;29;20383;-89
2022/01/01 02:56:21;;;;;;;16.70;9.57;;;;;;;;;;4920453;29;20024;-89
2022/01/01 02:58:46;;;;;;;17.65;10.00;;;;;;;;;;4930568;29;20423;-86
2022/01/01 03:01:11;;;;;;;21.05;9.27;;;;;;;;;;4937092;29;20074;-87
2022/01/01 03:03:37;;;;;;;16.02;8.73;;;;;;;;;;4925296;29;20052;-86
2022/01/01 03:06:03;;;;;;;16.20;9.50;;;;;;;;;;4932809;29;20024;-85
2022/01/01 03:08:28;;;;;;;15.23;9.07;;;;;;;;;;4906230;29;20501;-85
2022/01/01 03:10:54;;;;;;;14.43;8.70;;;;;;;;;;4935445;29;20570;-86
2022/01/01 03:13:19;;;;;;;15.93;8.68;;;;;;;;;;4932945;29;20047;-85
2022/01/01 03:15:44;;;;;;;20.52;9.90;;;;;;;;;;4913211;29;20024;-86
2022/01/01 03:18:10;;;;;;;16.27;9.30;;;;;;;;;;4931427;29;20102;-86
2022/01/01 03:20:36;;;;;;;17.80;10.27;;;;;;;;;;4936777;29;20478;-85
2022/01/01 03:23:02;;;;;;;17.80;10.43;;;;;;;;;;4938843;29;20032;-85
2022/01/01 03:25:28;;;;;;;21.95;11.57;;;;;;;;;;4943494;29;20020;-84
2022/01/01 03:27:53;;;;;;;19.40;12.00;;;;;;;;;;4955161;29;20011;-84
2022/01/01 03:30:19;;;;;;;22.95;12.43;;;;;;;;;;4940419;29;20060;-85
2022/01/01 03:32:44;;;;;;;20.52;12.38;;;;;;;;;;4941590;29;20034;-85
2022/01/01 03:35:10;;;;;;;18.90;12.38;;;;;;;;;;4940090;29;20036;-85
2022/01/01 03:37:35;;;;;;;20.33;12.93;;;;;;;;;;4944457;29;20027;-85
2022/01/01 03:40:02;;;;;;;21.73;13.52;;;;;;;;;;4960012;29;20046;-85
2022/01/01 03:42:27;;;;;;;19.67;12.10;;;;;;;;;;4956335;29;20031;-85
2022/01/01 03:44:52;;;;;;;20.17;12.60;;;;;;;;;;4946696;29;20096;-84
2022/01/01 03:47:18;;;;;;;22.10;12.63;;;;;;;;;;4945727;29;20023;-84
2022/01/01 03:49:43;;;;;;;18.70;12.13;;;;;;;;;;4920818;29;20028;-84
2022/01/01 03:52:08;;;;;;;23.73;13.45;;;;;;;;;;4905861;29;20043;-83
2022/01/01 03:54:34;;;;;;;23.08;12.98;;;;;;;;;;4910827;29;20019;-85
2022/01/01 03:57:00;;;;;;;26.52;14.70;;;;;;;;;;4911816;29;20460;-86
2022/01/01 03:59:26;;;;;;;25.13;15.45;;;;;;;;;;4920220;29;20040;-86
2022/01/01 04:01:51;;;;;;;31.40;18.58;;;;;;;;;;4919414;29;20040;-85
2022/01/01 04:04:17;;;;;;;28.90;17.20;;;;;;;;;;4925192;29;20020;-85
2022/01/01 04:06:42;;;;;;;31.25;18.40;;;;;;;;;;4931956;29;20083;-86
2022/01/01 04:09:08;;;;;;;34.03;19.27;;;;;;;;;;4922871;29;20433;-86
2022/01/01 04:11:33;;;;;;;35.33;20.20;;;;;;;;;;4921644;29;20701;-86
2022/01/01 04:13:58;;;;;;;34.10;20.17;;;;;;;;;;4935479;29;20028;-85
2022/01/01 04:16:24;;;;;;;35.60;20.52;;;;;;;;;;4911411;29;20087;-87
2022/01/01 04:18:49;;;;;;;35.00;20.77;;;;;;;;;;4937894;29;20023;-86
2022/01/01 04:21:15;;;;;;;38.08;21.95;;;;;;;;;;4941509;29;20031;-85
2022/01/01 04:23:44;;;;;;;31.80;20.08;;;;;;;;;;4923026;29;20032;-84
2022/01/01 04:26:10;;;;;;;33.75;20.67;;;;;;;;;;4940224;29;20367;-85
2022/01/01 04:28:37;;;;;;;32.08;19.55;;;;;;;;;;4940187;29;20146;-85
2022/01/01 04:31:03;;;;;;;34.47;20.77;;;;;;;;;;4929530;29;20031;-85
2022/01/01 04:33:28;;;;;;;33.60;20.60;;;;;;;;;;4926038;29;20069;-85
2022/01/01 04:35:54;;;;;;;34.17;19.38;;;;;;;;;;4939144;29;20146;-85
2022/01/01 04:40:50;;;;;;;30.42;18.02;;;;;;;;;;4939807;29;20475;-85
2022/01/01 04:43:16;;;;;;;31.45;18.02;;;;;;;;;;4918814;29;20039;-84
2022/01/01 04:45:41;;;;;;;29.92;17.98;;;;;;;;;;4928833;29;20418;-85
2022/01/01 04:48:06;;;;;;;28.80;17.45;;;;;;;;;;4937324;29;20019;-84
2022/01/01 04:50:32;;;;;;;31.17;16.58;;;;;;;;;;4904443;29;20572;-85
2022/01/01 04:52:58;;;;;;;32.80;16.88;;;;;;;;;;4936254;29;20030;-83
2022/01/01 04:55:24;;;;;;;31.75;17.10;;;;;;;;;;4927175;29;20052;-85
2022/01/01 04:57:49;;;;;;;30.02;17.75;;;;;;;;;;4908729;29;20050;-84
2022/01/01 05:00:15;;;;;;;30.23;17.95;;;;;;;;;;4917442;29;20055;-84
2022/01/01 05:02:40;;;;;;;29.75;17.95;;;;;;;;;;4909855;29;20075;-84
2022/01/01 05:05:06;;;;;;;29.95;17.40;;;;;;;;;;4919703;29;20039;-84
2022/01/01 05:07:32;;;;;;;29.75;17.52;;;;;;;;;;4937492;29;20099;-84
2022/01/01 05:09:57;;;;;;;29.40;16.83;;;;;;;;;;4927218;29;20510;-84
2022/01/01 05:12:22;;;;;;;30.48;17.05;;;;;;;;;;4919223;29;20087;-85
2022/01/01 05:14:48;;;;;;;30.38;17.48;;;;;;;;;;4921614;29;20502;-84
2022/01/01 05:17:14;;;;;;;32.30;17.95;;;;;;;;;;4918808;29;20024;-84
2022/01/01 05:19:39;;;;;;;32.13;18.60;;;;;;;;;;4918796;29;20032;-87
2022/01/01 05:22:05;;;;;;;29.30;18.30;;;;;;;;;;4920976;29;20035;-87
2022/01/01 05:24:30;;;;;;;31.80;17.77;;;;;;;;;;4925159;29;20114;-86
2022/01/01 05:26:56;;;;;;;30.98;17.98;;;;;;;;;;4925970;29;20028;-86
2022/01/01 05:29:21;;;;;;;33.67;17.67;;;;;;;;;;4920100;29;20027;-86
2022/01/01 05:31:46;;;;;;;32.17;17.67;;;;;;;;;;4920046;29;20463;-85
2022/01/01 05:34:12;;;;;;;29.50;16.40;;;;;;;;;;4918771;29;20064;-86
2022/01/01 05:36:37;;;;;;;31.90;16.60;;;;;;;;;;4920206;29;20036;-86
2022/01/01 05:39:02;;;;;;;29.52;17.17;;;;;;;;;;4920933;29;20071;-86
2022/01/01 05:41:28;;;;;;;30.38;17.50;;;;;;;;;;4925824;29;20023;-85
2022/01/01 05:43:53;;;;;;;32.05;17.15;;;;;;;;;;4932907;29;20035;-85
2022/01/01 05:46:19;;;;;;;26.77;16.80;;;;;;;;;;4931717;29;20387;-86
2022/01/01 05:48:44;;;;;;;32.70;16.70;;;;;;;;;;4925711;29;20023;-85
2022/01/01 05:51:10;;;;;;;27.00;16.05;;;;;;;;;;4932357;29;20027;-84
2022/01/01 05:53:35;;;;;;;21.17;12.38;;;;;;;;;;4929351;29;20030;-84
2022/01/01 05:56:01;;;;;;;22.20;12.68;;;;;;;;;;4931881;29;20042;-84
2022/01/01 05:58:26;;;;;;;23.60;12.95;;;;;;;;;;4930696;29;20023;-84
2022/01/01 06:00:51;;;;;;;23.08;12.25;;;;;;;;;;4914575;29;20044;-85
2022/01/01 06:03:18;;;;;;;21.20;12.07;;;;;;;;;;4939376;29;20110;-83
2022/01/01 06:05:44;;;;;;;18.95;10.48;;;;;;;;;;4927199;29;20402;-85
2022/01/01 06:08:09;;;;;;;23.33;12.52;;;;;;;;;;4921559;29;20027;-86
2022/01/01 06:10:35;;;;;;;21.20;11.95;;;;;;;;;;4921051;29;20051;-84
2022/01/01 06:13:00;;;;;;;20.50;11.02;;;;;;;;;;4924783;29;20023;-84
2022/01/01 06:15:25;;;;;;;22.30;11.68;;;;;;;;;;4928590;29;20028;-83
2022/01/01 06:17:51;;;;;;;20.40;12.35;;;;;;;;;;4921303;29;20032;-83
2022/01/01 06:20:16;;;;;;;23.00;12.00;;;;;;;;;;4921130;29;20034;-84
2022/01/01 06:22:42;;;;;;;21.40;12.38;;;;;;;;;;4932643;29;20032;-83
2022/01/01 06:25:08;;;;;;;22.38;11.38;;;;;;;;;;4923470;29;20067;-84
2022/01/01 06:27:34;;;;;;;20.08;11.63;;;;;;;;;;4939589;29;20024;-83
2022/01/01 06:29:59;;;;;;;22.25;12.23;;;;;;;;;;4940137;29;20435;-85
2022/01/01 06:32:25;;;;;;;22.00;12.05;;;;;;;;;;4935240;29;20024;-84
2022/01/01 06:34:50;;;;;;;21.75;12.43;;;;;;;;;;4920065;29;20483;-85
2022/01/01 06:37:16;;;;;;;24.05;12.32;;;;;;;;;;4921327;29;20506;-84
2022/01/01 06:39:41;;;;;;;22.30;10.50;;;;;;;;;;4921208;29;20114;-84
2022/01/01 06:42:07;;;;;;;18.63;10.55;;;;;;;;;;4920745;29;20023;-85
2022/01/01 06:44:32;;;;;;;19.23;10.73;;;;;;;;;;4930460;29;20051;-85
2022/01/01 06:46:58;;;;;;;18.98;10.52;;;;;;;;;;4931576;29;20031;-85
2022/01/01 06:49:23;;;;;;;18.02;10.77;;;;;;;;;;4912029;29;20053;-84
2022/01/01 06:51:48;;;;;;;15.15;9.05;;;;;;;;;;4916283;29;20491;-83
2022/01/01 06:54:14;;;;;;;15.85;9.40;;;;;;;;;;4924725;29;20043;-84
2022/01/01 06:56:39;;;;;;;19.40;10.60;;;;;;;;;;4939198;29;20075;-83
2022/01/01 06:59:04;;;;;;;14.35;8.75;;;;;;;;;;4940205;29;20091;-84
2022/01/01 07:01:30;;;;;;;14.63;9.23;;;;;;;;;;4940390;29;20028;-83
2022/01/01 07:03:56;;;;;;;15.93;8.82;;;;;;;;;;4931460;29;20087;-83
2022/01/01 07:06:22;;;;;;;16.77;9.13;;;;;;;;;;4946889;29;20058;-83
2022/01/01 07:08:47;;;;;;;16.88;9.77;;;;;;;;;;4948856;29;20024;-85
2022/01/01 07:11:12;;;;;;;16.83;9.68;;;;;;;;;;4930213;29;20040;-84
2022/01/01 07:13:38;;;;;;;15.95;10.00;;;;;;;;;;4931562;29;20035;-84
2022/01/01 07:16:04;;;;;;;15.85;9.32;;;;;;;;;;4942230;29;20501;-85
2022/01/01 07:18:30;;;;;;;17.02;10.23;;;;;;;;;;4926570;29;20663;-85
2022/01/01 07:20:55;;;;;;;14.93;9.05;;;;;;;;;;4939701;29;20031;-83
2022/01/01 07:23:21;;;;;;;15.43;8.55;;;;;;;;;;4937250;29;20035;-82
2022/01/01 07:25:46;;;;;;;13.43;8.23;;;;;;;;;;4926073;29;20027;-83
2022/01/01 07:28:14;;;;;;;12.55;8.02;;;;;;;;;;4927526;29;20016;-83
2022/01/01 07:30:40;;;;;;;15.55;8.27;;;;;;;;;;4920991;29;20024;-83
2022/01/01 07:33:05;;;;;;;13.07;7.80;;;;;;;;;;4904195;29;20441;-83
2022/01/01 07:35:36;;;;;;;14.13;8.60;;;;;;;;;;4930316;29;20031;-84
2022/01/01 07:38:01;;;;;;;11.63;7.85;;;;;;;;;;4928677;29;20042;-84
2022/01/01 07:40:26;;;;;;;13.27;7.43;;;;;;;;;;4926933;29;20095;-86
2022/01/01 07:42:52;;;;;;;14.05;7.18;;;;;;;;;;4928779;29;20052;-85
2022/01/01 07:45:17;;;;;;;15.32;8.68;;;;;;;;;;4928655;29;20032;-84
2022/01/01 07:47:42;;;;;;;17.95;10.73;;;;;;;;;;4916843;29;20117;-84
2022/01/01 07:50:09;;;;;;;16.85;9.75;;;;;;;;;;4921265;29;20032;-84
2022/01/01 07:52:35;;;;;;;14.63;8.73;;;;;;;;;;4907888;29;20483;-84
2022/01/01 07:55:01;;;;;;;15.43;9.02;;;;;;;;;;4928188;29;20075;-85
2022/01/01 07:57:26;;;;;;;13.40;8.27;;;;;;;;;;4918857;29;20055;-84
2022/01/01 07:59:51;;;;;;;13.00;8.38;;;;;;;;;;4922574;29;20047;-85
2022/01/01 08:02:17;;;;;;;15.77;9.32;;;;;;;;;;4939455;29;20024;-84
2022/01/01 08:04:42;;;;;;;16.98;8.88;;;;;;;;;;4924064;29;20164;-85
2022/01/01 08:07:07;;;;;;;13.20;8.32;;;;;;;;;;4920632;29;20028;-86
2022/01/01 08:09:33;;;;;;;13.75;8.23;;;;;;;;;;4921012;29;20032;-86
2022/01/01 08:11:58;;;;;;;16.10;9.10;;;;;;;;;;4921670;29;20028;-86
2022/01/01 08:14:23;;;;;;;15.00;9.02;;;;;;;;;;4911594;29;20031;-84
2022/01/01 08:17:00;;;;;;;14.88;8.77;;;;;;;;;;4936849;29;20443;-84
2022/01/01 08:19:27;;;;;;;13.88;8.18;;;;;;;;;;4922549;29;20472;-84
2022/01/01 08:21:53;;;;;;;13.88;8.60;;;;;;;;;;4922714;29;20031;-86
2022/01/01 08:24:18;;;;;;;14.68;8.38;;;;;;;;;;4918324;29;20202;-85
2022/01/01 08:26:44;;;;;;;15.90;9.00;;;;;;;;;;4919230;29;20035;-85
2022/01/01 08:29:09;;;;;;;14.27;8.63;;;;;;;;;;4940132;29;20607;-85
2022/01/01 08:31:35;;;;;;;15.15;8.68;;;;;;;;;;4939047;29;20032;-85
2022/01/01 08:34:00;;;;;;;13.73;7.78;;;;;;;;;;4922345;29;20028;-84
2022/01/01 08:36:25;;;;;;;13.13;7.30;;;;;;;;;;4920927;29;20036;-86
2022/01/01 08:38:51;;;;;;;10.68;6.65;;;;;;;;;;4921054;29;20042;-85
2022/01/01 08:41:16;;;;;;;9.65;6.03;;;;;;;;;;4907561;29;20052;-86
2022/01/01 08:43:42;;;;;;;10.32;5.72;;;;;;;;;;4932879;29;20092;-85
2022/01/01 08:46:07;;;;;;;10.80;5.82;;;;;;;;;;4929108;29;20438;-84
2022/01/01 08:48:33;;;;;;;9.13;5.72;;;;;;;;;;4910636;29;20028;-86
2022/01/01 08:50:59;;;;;;;10.07;5.82;;;;;;;;;;4921436;29;20419;-86
2022/01/01 08:53:24;;;;;;;9.75;5.72;;;;;;;;;;4927659;29;20035;-84
2022/01/01 08:55:50;;;;;;;9.50;5.30;;;;;;;;;;4922330;29;20435;-84
2022/01/01 08:58:15;;;;;;;9.82;5.60;;;;;;;;;;4921845;29;20039;-86
2022/01/01 09:00:41;;;;;;;11.55;5.70;;;;;;;;;;4911067;29;20059;-86
2022/01/01 09:03:06;;;;;;;11.20;6.47;;;;;;;;;;4929799;29;20459;-86
2022/01/01 09:05:31;;;;;;;10.93;5.63;;;;;;;;;;4924156;29;20066;-86
2022/01/01 09:07:58;;;;;;;9.98;5.68;;;;;;;;;;4940681;29;20023;-87
2022/01/01 09:10:23;;;;;;;9.35;5.53;;;;;;;;;;4939573;29;20570;-86
2022/01/01 09:12:49;;;;;;;8.40;5.38;;;;;;;;;;4907568;29;20054;-82
2022/01/01 09:15:14;;;;;;;8.75;5.40;;;;;;;;;;4927315;29;20115;-87
2022/01/01 09:17:39;;;;;;;6.95;4.35;;;;;;;;;;4920099;29;20039;-86
2022/01/01 09:20:05;;;;;;;6.43;4.05;;;;;;;;;;4919823;29;20031;-85
2022/01/01 09:22:31;;;;;;;5.93;3.85;;;;;;;;;;4929382;29;20414;-84
2022/01/01 09:24:56;;;;;;;6.18;3.50;;;;;;;;;;4912649;29;20479;-85
2022/01/01 09:27:22;;;;;;;6.07;3.45;;;;;;;;;;4921008;29;20052;-86
2022/01/01 09:29:47;;;;;;;5.22;3.78;;;;;;;;;;4924727;29;20498;-84
2022/01/01 09:32:13;;;;;;;5.60;3.53;;;;;;;;;;4931459;29;20379;-86
2022/01/01 09:34:38;;;;;;;7.15;3.50;;;;;;;;;;4911354;29;20016;-85
2022/01/01 09:37:04;;;;;;;5.70;3.15;;;;;;;;;;4912662;29;20026;-86
2022/01/01 09:39:30;;;;;;;6.18;3.28;;;;;;;;;;4936861;29;20537;-86
2022/01/01 09:41:56;;;;;;;5.28;2.92;;;;;;;;;;4923410;29;20071;-87
2022/01/01 09:44:22;;;;;;;4.38;2.90;;;;;;;;;;4927462;29;20047;-88
2022/01/01 09:46:50;;;;;;;6.03;2.60;;;;;;;;;;4936463;29;20036;-87
2022/01/01 09:49:17;;;;;;;3.60;2.38;;;;;;;;;;4922794;29;20023;-86
2022/01/01 09:51:43;;;;;;;4.68;3.13;;;;;;;;;;4938666;29;20028;-84
2022/01/01 09:54:10;;;;;;;5.70;3.40;;;;;;;;;;4935790;29;20107;-83
2022/01/01 09:56:36;;;;;;;4.68;3.25;;;;;;;;;;4919617;29;20036;-86
2022/01/01 09:59:02;;;;;;;6.22;2.90;;;;;;;;;;4919345;29;20047;-86
2022/01/01 10:01:28;;;;;;;4.25;2.70;;;;;;;;;;4924155;29;20020;-87
2022/01/01 10:03:53;;;;;;;4.32;2.22;;;;;;;;;;4926638;29;20083;-85
2022/01/01 10:06:20;;;;;;;4.68;2.30;;;;;;;;;;4934326;29;20020;-87
2022/01/01 10:08:47;;;;;;;3.55;2.65;;;;;;;;;;4933135;29;20024;-88
2022/01/01 10:11:16;;;;;;;7.10;3.13;;;;;;;;;;4938589;29;20078;-86
2022/01/01 10:13:42;;;;;;;4.90;3.10;;;;;;;;;;4933563;29;20028;-85
2022/01/01 10:16:09;;;;;;;5.28;2.60;;;;;;;;;;4930106;29;20051;-85
2022/01/01 10:18:47;;;;;;;4.30;2.80;;;;;;;;;;4939953;29;20031;-85
2022/01/01 10:21:25;;;;;;;4.40;2.78;;;;;;;;;;4919716;29;20028;-86
2022/01/01 10:23:55;;;;;;;4.10;2.67;;;;;;;;;;4923214;29;20055;-86
2022/01/01 10:29:31;;;;;;;3.10;2.10;;;;;;;;;;4938469;29;20075;-86
2022/01/01 10:32:04;;;;;;;4.47;2.58;;;;;;;;;;4923838;29;20077;-85
2022/01/01 10:34:35;;;;;;;4.90;2.90;;;;;;;;;;4943099;29;20031;-86
2022/01/01 10:37:03;;;;;;;5.63;3.83;;;;;;;;;;4941645;29;20089;-85
2022/01/01 10:39:28;;;;;;;8.60;3.75;;;;;;;;;;4943928;29;20031;-86
2022/01/01 10:42:00;;;;;;;6.13;3.55;;;;;;;;;;4927526;29;20266;-84
2022/01/01 10:44:38;;;;;;;7.53;4.22;;;;;;;;;;4921758;29;20015;-83
2022/01/01 10:47:18;;;;;;;6.18;3.67;;;;;;;;;;4932933;29;20519;-85
2022/01/01 10:52:13;;;;;;;8.80;4.22;;;;;;;;;;4925872;29;20083;-84
2022/01/01 10:54:46;;;;;;;7.93;4.90;;;;;;;;;;4924837;29;20110;-85
2022/01/01 10:57:11;;;;;;;7.55;3.78;;;;;;;;;;4941755;29;20036;-86
2022/01/01 10:59:38;;;;;;;7.07;3.70;;;;;;;;;;4926339;29;20032;-86
2022/01/01 11:02:06;;;;;;;5.65;3.63;;;;;;;;;;4942970;29;20078;-86
2022/01/01 11:04:36;;;;;;;6.13;3.72;;;;;;;;;;4925799;29;20058;-86
2022/01/01 11:07:03;;;;;;;10.65;5.20;;;;;;;;;;4937384;29;20034;-86
2022/01/01 11:09:31;;;;;;;6.47;4.15;;;;;;;;;;4930566;29;20016;-86
2022/01/01 11:12:03;;;;;;;9.68;4.45;;;;;;;;;;4914788;29;20106;-87
2022/01/01 11:14:32;;;;;;;;;;;;;;;;;;4939932;29;20620;-86
2022/01/01 11:16:59;;;;;;;8.40;4.95;;;;;;;;;;4941868;29;19919;-86
2022/01/01 11:19:25;;;;;;;7.32;4.35;;;;;;;;;;4929726;29;20064;-85
2022/01/01 11:21:52;;;;;;;7.90;4.50;;;;;;;;;;4923994;29;20031;-86
2022/01/01 11:24:18;;;;;;;11.20;5.00;;;;;;;;;;4933641;29;20028;-85
2022/01/01 11:26:44;;;;;;;10.82;5.25;;;;;;;;;;4925071;29;20451;-87
2022/01/01 11:29:13;;;;;;;9.15;5.38;;;;;;;;;;4923848;29;20103;-87
2022/01/01 11:31:41;;;;;;;10.38;5.88;;;;;;;;;;4933583;29;20032;-87
2022/01/01 11:34:07;;;;;;;8.30;5.07;;;;;;;;;;4937684;29;20370;-84
2022/01/01 11:36:34;;;;;;;9.98;5.47;;;;;;;;;;4940313;29;20111;-87
2022/01/01 11:39:05;;;;;;;8.13;5.07;;;;;;;;;;4939395;29;20111;-86
2022/01/01 11:41:38;;;;;;;9.83;5.73;;;;;;;;;;4923552;29;20483;-85
2022/01/01 11:44:29;;;;;;;6.80;4.35;;;;;;;;;;4936392;29;20024;-87
2022/01/01 11:47:01;;;;;;;9.80;5.25;;;;;;;;;;4924116;29;20031;-86
2022/01/01 11:49:28;;;;;;;7.18;4.80;;;;;;;;;;4942988;29;20042;-87
2022/01/01 11:51:55;;;;;;;8.73;4.93;;;;;;;;;;4942147;29;20495;-86
2022/01/01 11:54:42;;;;;;;8.98;5.07;;;;;;;;;;4935773;29;20036;-86
2022/01/01 11:57:25;;;;;;;9.18;5.22;;;;;;;;;;4941775;29;20091;-85
2022/01/01 11:59:58;;;;;;;9.38;5.35;;;;;;;;;;4947427;29;20117;-89
2022/01/01 12:02:26;;;;;;;10.93;5.00;;;;;;;;;;4913866;29;20024;-89
2022/01/01 12:04:55;;;;;;;8.13;4.30;;;;;;;;;;4927385;29;20051;-88
2022/01/01 12:07:20;;;;;;;11.38;4.65;;;;;;;;;;4925815;29;20028;-86
2022/01/01 12:09:58;;;;;;;9.13;4.72;;;;;;;;;;4929836;29;20032;-86
2022/01/01 12:12:52;;;;;;;6.63;4.43;;;;;;;;;;4938082;29;20027;-86
2022/01/01 12:15:28;;;;;;;7.18;4.65;;;;;;;;;;4939620;29;20031;-87
2022/01/01 12:18:11;;;;;;;7.28;4.85;;;;;;;;;;4928354;29;20024;-87
2022/01/01 12:20:46;;;;;;;8.45;4.63;;;;;;;;;;4935249;29;20020;-86
2022/01/01 12:23:17;;;;;;;9.35;5.20;;;;;;;;;;4951775;29;20035;-85
2022/01/01 12:25:48;;;;;;;11.73;5.15;;;;;;;;;;4939712;29;20136;-87
2022/01/01 12:28:18;;;;;;;11.32;6.55;;;;;;;;;;4927909;29;20031;-87
2022/01/01 12:30:46;;;;;;;9.65;5.65;;;;;;;;;;4924511;29;20068;-89
2022/01/01 12:33:47;;;;;;;11.60;6.03;;;;;;;;;;4919517;29;20024;-90
2022/01/01 12:36:18;;;;;;;9.40;6.05;;;;;;;;;;4914941;29;20020;-85
2022/01/01 12:38:49;;;;;;;10.32;6.00;;;;;;;;;;4934380;29;20032;-88
2022/01/01 12:41:22;;;;;;;9.60;6.45;;;;;;;;;;4929281;29;20032;-88
2022/01/01 12:43:56;;;;;;;12.48;6.80;;;;;;;;;;4932170;29;20024;-88
2022/01/01 12:46:28;;;;;;;11.13;6.38;;;;;;;;;;4912613;29;20031;-87
2022/01/01 12:48:57;;;;;;;10.25;5.68;;;;;;;;;;4928395;29;20517;-87
2022/01/01 12:51:23;;;;;;;9.60;5.32;;;;;;;;;;4929616;29;20047;-87
2022/01/01 12:54:12;;;;;;;9.88;5.78;;;;;;;;;;4927264;29;20028;-86
2022/01/01 12:56:39;;;;;;;11.10;6.43;;;;;;;;;;4915214;29;20023;-88
2022/01/01 12:59:10;;;;;;;11.23;6.50;;;;;;;;;;4915961;29;20052;-87
2022/01/01 13:01:36;;;;;;;10.40;6.63;;;;;;;;;;4929003;29;20391;-87
2022/01/01 13:04:05;;;;;;;12.23;6.68;;;;;;;;;;4933780;29;20030;-85
2022/01/01 13:06:36;;;;;;;9.48;6.32;;;;;;;;;;4910258;29;20052;-87
2022/01/01 13:09:05;;;;;;;10.93;6.28;;;;;;;;;;4928002;29;20044;-88
2022/01/01 13:11:33;;;;;;;9.05;4.70;;;;;;;;;;4931247;29;20610;-88
2022/01/01 13:13:58;;;;;;;11.00;5.88;;;;;;;;;;4944575;29;20031;-88
2022/01/01 13:16:24;;;;;;;11.98;5.82;;;;;;;;;;4936113;29;20056;-89
2022/01/01 13:18:50;;;;;;;9.88;5.30;;;;;;;;;;4927165;29;20028;-90
2022/01/01 13:21:19;;;;;;;14.98;7.00;;;;;;;;;;4919411;29;20106;-89
2022/01/01 13:23:48;;;;;;;9.63;5.90;;;;;;;;;;4919746;29;20028;-89
2022/01/01 13:26:15;;;;;;;10.88;5.90;;;;;;;;;;4924748;29;20044;-87
2022/01/01 13:28:40;;;;;;;8.23;4.63;;;;;;;;;;4924788;29;20023;-88
2022/01/01 13:31:07;;;;;;;9.05;4.97;;;;;;;;;;4947179;29;20049;-87
2022/01/01 13:33:35;;;;;;;9.93;5.13;;;;;;;;;;4949232;29;20030;-87
2022/01/01 13:36:05;;;;;;;8.27;5.25;;;;;;;;;;4942368;29;20031;-88
2022/01/01 13:38:32;;;;;;;9.23;5.43;;;;;;;;;;4917896;29;20021;-88
2022/01/01 13:40:59;;;;;;;9.43;5.22;;;;;;;;;;4930833;29;20438;-89
2022/01/01 13:43:27;;;;;;;8.65;5.07;;;;;;;;;;4947054;29;20024;-88
2022/01/01 13:46:07;;;;;;;7.93;5.25;;;;;;;;;;4930110;29;20038;-89
2022/01/01 13:48:43;;;;;;;7.38;4.30;;;;;;;;;;4913028;29;20028;-89
2022/01/01 13:51:09;;;;;;;5.70;3.95;;;;;;;;;;4925795;29;20027;-89
2022/01/01 13:53:35;;;;;;;8.40;4.28;;;;;;;;;;4923073;29;20475;-88
2022/01/01 13:56:08;;;;;;;5.38;3.55;;;;;;;;;;4929802;29;20099;-89
2022/01/01 13:59:00;;;;;;;6.60;3.78;;;;;;;;;;4928181;29;20020;-83
2022/01/01 14:01:26;;;;;;;;;;;;;;;;;;4924233;29;20100;-88
2022/01/01 14:03:53;;;;;;;13.70;4.35;;;;;;;;;;4933931;29;19978;-89
2022/01/01 14:06:27;;;;;;;5.50;3.55;;;;;;;;;;4938708;29;20176;-89
2022/01/01 14:09:01;;;;;;;6.30;3.75;;;;;;;;;;4918431;29;20027;-88
2022/01/01 14:11:37;;;;;;;6.47;4.10;;;;;;;;;;4945795;29;20024;-90
2022/01/01 14:14:13;;;;;;;8.02;4.60;;;;;;;;;;4942020;29;20554;-87
2022/01/01 14:16:46;;;;;;;7.03;4.00;;;;;;;;;;4939905;29;20044;-86
2022/01/01 14:19:13;;;;;;;6.63;3.55;;;;;;;;;;4927499;28;20034;-86
2022/01/01 14:21:39;;;;;;;8.20;3.78;;;;;;;;;;4942289;29;20083;-88
2022/01/01 14:24:04;;;;;;;6.32;3.92;;;;;;;;;;4958265;29;20047;-87
2022/01/01 14:26:39;;;;;;;7.57;4.30;;;;;;;;;;4952472;28;20037;-86
2022/01/01 14:29:08;;;;;;;6.85;4.10;;;;;;;;;;4938436;29;20029;-87
2022/01/01 14:31:34;;;;;;;7.95;4.30;;;;;;;;;;4927696;29;20023;-88
2022/01/01 14:34:01;;;;;;;6.95;4.22;;;;;;;;;;4937358;29;20072;-88
2022/01/01 14:36:26;;;;;;;10.05;4.30;;;;;;;;;;4957569;29;20023;-87
2022/01/01 14:38:52;;;;;;;6.65;4.22;;;;;;;;;;4941962;29;20107;-88
2022/01/01 14:41:20;;;;;;;7.93;4.05;;;;;;;;;;4958799;28;20103;-88
2022/01/01 14:43:46;;;;;;;7.70;4.13;;;;;;;;;;4951851;28;20032;-87
2022/01/01 14:46:19;;;;;;;7.07;4.00;;;;;;;;;;4934056;29;20019;-87
2022/01/01 14:49:00;;;;;;;8.15;3.70;;;;;;;;;;4937041;29;20058;-88
2022/01/01 14:51:35;;;;;;;8.43;4.50;;;;;;;;;;4941431;29;20028;-88
2022/01/01 14:54:16;;;;;;;7.55;3.92;;;;;;;;;;4928902;29;20032;-88
2022/01/01 14:57:07;;;;;;;7.65;4.32;;;;;;;;;;4912241;29;20034;-88
2022/01/01 14:59:39;;;;;;;8.43;4.55;;;;;;;;;;4916440;29;20465;-89
2022/01/01 15:02:07;;;;;;;9.80;4.38;;;;;;;;;;4940272;29;20032;-88
2022/01/01 15:04:34;;;;;;;9.07;4.32;;;;;;;;;;4918141;29;20099;-88
2022/01/01 15:07:00;;;;;;;7.45;4.50;;;;;;;;;;4927996;29;20023;-89
2022/01/01 15:09:29;;;;;;;6.57;4.28;;;;;;;;;;4944586;29;20355;-89
2022/01/01 15:11:55;;;;;;;7.97;4.35;;;;;;;;;;4945038;29;20122;-89
2022/01/01 15:14:23;;;;;;;7.97;4.10;;;;;;;;;;4916452;29;20019;-89
2022/01/01 15:16:51;;;;;;;9.23;5.07;;;;;;;;;;4954179;29;20054;-88
2022/01/01 15:19:16;;;;;;;10.00;5.40;;;;;;;;;;4948563;28;20031;-88
2022/01/01 15:21:58;;;;;;;9.93;4.75;;;;;;;;;;4923824;29;20031;-88
2022/01/01 15:24:31;;;;;;;6.90;4.90;;;;;;;;;;4923584;29;20019;-87
2022/01/01 15:26:58;;;;;;;7.75;4.78;;;;;;;;;;4931223;29;20024;-87
2022/01/01 15:34:49;;;;;;;8.55;4.97;;;;;;;;;;4937127;29;20078;-88
2022/01/01 15:37:17;;;;;;;9.30;5.53;;;;;;;;;;4912215;29;20127;-88
2022/01/01 15:39:45;;;;;;;10.43;5.55;;;;;;;;;;4929312;29;20028;-88
2022/01/01 15:42:25;;;;;;;9.75;5.53;;;;;;;;;;4940681;29;20024;-87
2022/01/01 15:45:35;;;;;;;14.43;5.15;;;;;;;;;;4922470;29;20027;-89